sensor_id;sensor_type;location;lat;lon;timestamp;P1;durP1;ratioP1;P2;durP2;ratioP2
9388;SDS011;4734;52.778;6.798;2023-04-06T00:00:38;4.20;;;3.80;;
9388;SDS011;4734;52.778;6.798;2023-04-06T00:03:24;5.23;;;3.50;;
9388;SDS011;4734;52.778;6.798;2023-04-06T00:06:09;4.67;;;3.60;;
9388;SDS011;4734;52.778;6.798;2023-04-06T00:08:55;4.03;;;3.63;;
9388;SDS011;4734;52.778;6.798;2023-04-06T00:11:41;2.83;;;2.63;;
9388;SDS011;4734;52.778;6.798;2023-04-06T00:14:26;3.70;;;3.40;;
9388;SDS011;4734;52.778;6.798;2023-04-06T00:17:13;6.20;;;3.37;;
9388;SDS011;4734;52.778;6.798;2023-04-06T00:19:59;3.50;;;3.20;;
9388;SDS011;4734;52.778;6.798;2023-04-06T00:22:46;4.20;;;3.77;;
9388;SDS011;4734;52.778;6.798;2023-04-06T00:25:32;4.13;;;3.00;;
9388;SDS011;4734;52.778;6.798;2023-04-06T00:28:18;3.87;;;3.40;;
9388;SDS011;4734;52.778;6.798;2023-04-06T00:31:08;3.93;;;3.53;;
9388;SDS011;4734;52.778;6.798;2023-04-06T00:33:55;4.17;;;3.17;;
9388;SDS011;4734;52.778;6.798;2023-04-06T00:36:41;3.87;;;3.40;;
9388;SDS011;4734;52.778;6.798;2023-04-06T00:39:27;3.97;;;3.60;;
9388;SDS011;4734;52.778;6.798;2023-04-06T00:42:12;3.93;;;3.57;;
9388;SDS011;4734;52.778;6.798;2023-04-06T00:45:00;4.20;;;3.80;;
9388;SDS011;4734;52.778;6.798;2023-04-06T00:47:45;3.83;;;3.47;;
9388;SDS011;4734;52.778;6.798;2023-04-06T00:50:32;3.53;;;3.10;;
9388;SDS011;4734;52.778;6.798;2023-04-06T00:53:18;4.10;;;3.70;;
9388;SDS011;4734;52.778;6.798;2023-04-06T00:56:05;3.90;;;3.27;;
9388;SDS011;4734;52.778;6.798;2023-04-06T00:58:53;3.17;;;2.80;;
9388;SDS011;4734;52.778;6.798;2023-04-06T01:01:39;3.70;;;3.37;;
9388;SDS011;4734;52.778;6.798;2023-04-06T01:04:24;4.27;;;3.70;;
9388;SDS011;4734;52.778;6.798;2023-04-06T01:07:11;3.77;;;3.47;;
9388;SDS011;4734;52.778;6.798;2023-04-06T01:09:57;4.07;;;3.77;;
9388;SDS011;4734;52.778;6.798;2023-04-06T01:12:43;4.70;;;3.33;;
9388;SDS011;4734;52.778;6.798;2023-04-06T01:15:28;5.13;;;3.60;;
9388;SDS011;4734;52.778;6.798;2023-04-06T01:18:15;3.47;;;3.27;;
9388;SDS011;4734;52.778;6.798;2023-04-06T01:21:01;3.33;;;3.13;;
9388;SDS011;4734;52.778;6.798;2023-04-06T01:23:47;3.60;;;3.30;;
9388;SDS011;4734;52.778;6.798;2023-04-06T01:26:33;3.83;;;3.30;;
9388;SDS011;4734;52.778;6.798;2023-04-06T01:29:19;4.60;;;3.70;;
9388;SDS011;4734;52.778;6.798;2023-04-06T01:32:04;3.63;;;3.30;;
9388;SDS011;4734;52.778;6.798;2023-04-06T01:34:50;5.03;;;3.47;;
9388;SDS011;4734;52.778;6.798;2023-04-06T01:37:35;3.83;;;3.53;;
9388;SDS011;4734;52.778;6.798;2023-04-06T01:40:23;4.83;;;3.63;;
9388;SDS011;4734;52.778;6.798;2023-04-06T01:43:08;4.20;;;3.80;;
9388;SDS011;4734;52.778;6.798;2023-04-06T01:45:54;3.63;;;3.17;;
9388;SDS011;4734;52.778;6.798;2023-04-06T01:48:40;3.50;;;3.20;;
9388;SDS011;4734;52.778;6.798;2023-04-06T01:51:25;4.43;;;4.03;;
9388;SDS011;4734;52.778;6.798;2023-04-06T01:54:11;5.87;;;4.03;;
9388;SDS011;4734;52.778;6.798;2023-04-06T01:56:58;4.37;;;3.90;;
9388;SDS011;4734;52.778;6.798;2023-04-06T01:59:43;3.93;;;3.50;;
9388;SDS011;4734;52.778;6.798;2023-04-06T02:02:29;3.73;;;3.30;;
9388;SDS011;4734;52.778;6.798;2023-04-06T02:05:15;4.23;;;3.83;;
9388;SDS011;4734;52.778;6.798;2023-04-06T02:08:00;4.33;;;3.60;;
9388;SDS011;4734;52.778;6.798;2023-04-06T02:10:46;5.13;;;3.50;;
9388;SDS011;4734;52.778;6.798;2023-04-06T02:13:33;4.03;;;3.73;;
9388;SDS011;4734;52.778;6.798;2023-04-06T02:16:19;4.60;;;4.20;;
9388;SDS011;4734;52.778;6.798;2023-04-06T02:19:05;5.17;;;4.20;;
9388;SDS011;4734;52.778;6.798;2023-04-06T02:21:50;4.83;;;4.43;;
9388;SDS011;4734;52.778;6.798;2023-04-06T02:24:36;4.40;;;3.20;;
9388;SDS011;4734;52.778;6.798;2023-04-06T02:27:21;3.83;;;3.53;;
9388;SDS011;4734;52.778;6.798;2023-04-06T02:30:09;4.67;;;4.10;;
9388;SDS011;4734;52.778;6.798;2023-04-06T02:32:54;3.87;;;3.57;;
9388;SDS011;4734;52.778;6.798;2023-04-06T02:35:40;5.67;;;3.90;;
9388;SDS011;4734;52.778;6.798;2023-04-06T02:38:26;4.20;;;3.87;;
9388;SDS011;4734;52.778;6.798;2023-04-06T02:41:11;5.93;;;3.83;;
9388;SDS011;4734;52.778;6.798;2023-04-06T02:43:57;4.20;;;3.80;;
9388;SDS011;4734;52.778;6.798;2023-04-06T02:46:44;4.57;;;3.93;;
9388;SDS011;4734;52.778;6.798;2023-04-06T02:49:30;4.90;;;3.67;;
9388;SDS011;4734;52.778;6.798;2023-04-06T02:52:15;4.77;;;3.60;;
9388;SDS011;4734;52.778;6.798;2023-04-06T02:55:02;4.80;;;4.30;;
9388;SDS011;4734;52.778;6.798;2023-04-06T02:57:48;7.60;;;4.13;;
9388;SDS011;4734;52.778;6.798;2023-04-06T03:00:33;4.77;;;3.83;;
9388;SDS011;4734;52.778;6.798;2023-04-06T03:03:21;5.90;;;3.57;;
9388;SDS011;4734;52.778;6.798;2023-04-06T03:06:06;6.53;;;4.67;;
9388;SDS011;4734;52.778;6.798;2023-04-06T03:08:52;5.80;;;4.23;;
9388;SDS011;4734;52.778;6.798;2023-04-06T03:11:37;6.17;;;3.93;;
9388;SDS011;4734;52.778;6.798;2023-04-06T03:14:23;5.63;;;4.20;;
9388;SDS011;4734;52.778;6.798;2023-04-06T03:17:09;5.03;;;4.63;;
9388;SDS011;4734;52.778;6.798;2023-04-06T03:19:55;5.63;;;4.33;;
9388;SDS011;4734;52.778;6.798;2023-04-06T03:22:41;6.53;;;4.70;;
9388;SDS011;4734;52.778;6.798;2023-04-06T03:25:27;4.30;;;3.90;;
9388;SDS011;4734;52.778;6.798;2023-04-06T03:28:13;5.17;;;4.57;;
9388;SDS011;4734;52.778;6.798;2023-04-06T03:30:59;4.20;;;3.60;;
9388;SDS011;4734;52.778;6.798;2023-04-06T03:33:45;3.97;;;3.67;;
9388;SDS011;4734;52.778;6.798;2023-04-06T03:36:33;4.97;;;4.40;;
9388;SDS011;4734;52.778;6.798;2023-04-06T03:39:19;5.97;;;4.70;;
9388;SDS011;4734;52.778;6.798;2023-04-06T03:42:04;4.63;;;4.23;;
9388;SDS011;4734;52.778;6.798;2023-04-06T03:44:50;4.57;;;4.00;;
9388;SDS011;4734;52.778;6.798;2023-04-06T03:47:36;5.10;;;4.20;;
9388;SDS011;4734;52.778;6.798;2023-04-06T03:50:21;6.30;;;4.77;;
9388;SDS011;4734;52.778;6.798;2023-04-06T03:53:08;5.93;;;4.57;;
9388;SDS011;4734;52.778;6.798;2023-04-06T03:55:54;4.53;;;4.23;;
9388;SDS011;4734;52.778;6.798;2023-04-06T03:58:40;5.03;;;4.53;;
9388;SDS011;4734;52.778;6.798;2023-04-06T04:01:28;4.77;;;4.37;;
9388;SDS011;4734;52.778;6.798;2023-04-06T04:04:13;5.20;;;4.70;;
9388;SDS011;4734;52.778;6.798;2023-04-06T04:06:59;13.67;;;5.33;;
9388;SDS011;4734;52.778;6.798;2023-04-06T04:09:46;5.17;;;4.67;;
9388;SDS011;4734;52.778;6.798;2023-04-06T04:12:31;5.10;;;4.60;;
9388;SDS011;4734;52.778;6.798;2023-04-06T04:15:17;6.33;;;4.80;;
9388;SDS011;4734;52.778;6.798;2023-04-06T04:18:03;5.50;;;5.00;;
9388;SDS011;4734;52.778;6.798;2023-04-06T04:20:48;5.20;;;4.70;;
9388;SDS011;4734;52.778;6.798;2023-04-06T04:23:34;5.50;;;5.00;;
9388;SDS011;4734;52.778;6.798;2023-04-06T04:26:21;5.47;;;4.70;;
9388;SDS011;4734;52.778;6.798;2023-04-06T04:29:07;6.10;;;5.23;;
9388;SDS011;4734;52.778;6.798;2023-04-06T04:31:52;5.50;;;5.00;;
9388;SDS011;4734;52.778;6.798;2023-04-06T04:34:38;5.43;;;4.93;;
9388;SDS011;4734;52.778;6.798;2023-04-06T04:37:24;5.80;;;5.20;;
9388;SDS011;4734;52.778;6.798;2023-04-06T04:40:10;6.63;;;5.23;;
9388;SDS011;4734;52.778;6.798;2023-04-06T04:42:57;5.70;;;5.10;;
9388;SDS011;4734;52.778;6.798;2023-04-06T04:45:42;5.80;;;4.93;;
9388;SDS011;4734;52.778;6.798;2023-04-06T04:48:28;5.83;;;5.30;;
9388;SDS011;4734;52.778;6.798;2023-04-06T04:51:14;5.43;;;4.93;;
9388;SDS011;4734;52.778;6.798;2023-04-06T04:53:59;5.13;;;4.63;;
9388;SDS011;4734;52.778;6.798;2023-04-06T04:56:45;6.50;;;5.60;;
9388;SDS011;4734;52.778;6.798;2023-04-06T04:59:31;6.20;;;4.83;;
9388;SDS011;4734;52.778;6.798;2023-04-06T05:02:17;8.73;;;5.40;;
9388;SDS011;4734;52.778;6.798;2023-04-06T05:05:03;5.97;;;5.20;;
9388;SDS011;4734;52.778;6.798;2023-04-06T05:07:49;6.30;;;5.67;;
9388;SDS011;4734;52.778;6.798;2023-04-06T05:10:34;8.63;;;6.00;;
9388;SDS011;4734;52.778;6.798;2023-04-06T05:13:20;8.10;;;5.90;;
9388;SDS011;4734;52.778;6.798;2023-04-06T05:16:07;6.60;;;5.70;;
9388;SDS011;4734;52.778;6.798;2023-04-06T05:18:53;6.53;;;5.80;;
9388;SDS011;4734;52.778;6.798;2023-04-06T05:21:40;8.93;;;5.87;;
9388;SDS011;4734;52.778;6.798;2023-04-06T05:24:25;7.93;;;6.00;;
9388;SDS011;4734;52.778;6.798;2023-04-06T05:27:11;7.27;;;6.57;;
9388;SDS011;4734;52.778;6.798;2023-04-06T05:29:57;8.07;;;6.33;;
9388;SDS011;4734;52.778;6.798;2023-04-06T05:32:44;6.40;;;5.37;;
9388;SDS011;4734;52.778;6.798;2023-04-06T05:35:30;8.83;;;6.53;;
9388;SDS011;4734;52.778;6.798;2023-04-06T05:38:15;8.53;;;5.70;;
9388;SDS011;4734;52.778;6.798;2023-04-06T05:41:01;6.40;;;5.80;;
9388;SDS011;4734;52.778;6.798;2023-04-06T05:43:46;6.70;;;5.47;;
9388;SDS011;4734;52.778;6.798;2023-04-06T05:46:32;6.10;;;5.50;;
9388;SDS011;4734;52.778;6.798;2023-04-06T05:49:19;6.50;;;5.83;;
9388;SDS011;4734;52.778;6.798;2023-04-06T05:52:05;10.67;;;5.90;;
9388;SDS011;4734;52.778;6.798;2023-04-06T05:54:50;7.77;;;6.57;;
9388;SDS011;4734;52.778;6.798;2023-04-06T05:57:36;7.23;;;6.30;;
9388;SDS011;4734;52.778;6.798;2023-04-06T06:00:21;7.80;;;6.47;;
9388;SDS011;4734;52.778;6.798;2023-04-06T06:03:07;7.17;;;6.33;;
9388;SDS011;4734;52.778;6.798;2023-04-06T06:05:58;7.10;;;6.40;;
9388;SDS011;4734;52.778;6.798;2023-04-06T06:08:44;7.97;;;6.57;;
9388;SDS011;4734;52.778;6.798;2023-04-06T06:11:30;6.57;;;5.97;;
9388;SDS011;4734;52.778;6.798;2023-04-06T06:14:16;9.23;;;6.73;;
9388;SDS011;4734;52.778;6.798;2023-04-06T06:17:01;7.50;;;6.80;;
9388;SDS011;4734;52.778;6.798;2023-04-06T06:19:47;6.30;;;5.70;;
9388;SDS011;4734;52.778;6.798;2023-04-06T06:22:34;7.40;;;6.63;;
9388;SDS011;4734;52.778;6.798;2023-04-06T06:25:20;7.60;;;6.83;;
9388;SDS011;4734;52.778;6.798;2023-04-06T06:28:05;9.43;;;6.47;;
9388;SDS011;4734;52.778;6.798;2023-04-06T06:30:51;8.77;;;6.80;;
9388;SDS011;4734;52.778;6.798;2023-04-06T06:33:36;8.87;;;6.70;;
9388;SDS011;4734;52.778;6.798;2023-04-06T06:36:22;10.93;;;6.53;;
9388;SDS011;4734;52.778;6.798;2023-04-06T06:39:10;8.80;;;6.03;;
9388;SDS011;4734;52.778;6.798;2023-04-06T06:41:55;7.47;;;6.70;;
9388;SDS011;4734;52.778;6.798;2023-04-06T06:44:44;8.17;;;7.30;;
9388;SDS011;4734;52.778;6.798;2023-04-06T06:47:29;7.27;;;6.53;;
9388;SDS011;4734;52.778;6.798;2023-04-06T06:50:15;6.93;;;6.23;;
9388;SDS011;4734;52.778;6.798;2023-04-06T06:53:01;8.53;;;7.63;;
9388;SDS011;4734;52.778;6.798;2023-04-06T06:55:47;8.23;;;6.77;;
9388;SDS011;4734;52.778;6.798;2023-04-06T06:58:33;7.90;;;6.53;;
9388;SDS011;4734;52.778;6.798;2023-04-06T07:01:19;8.37;;;7.43;;
9388;SDS011;4734;52.778;6.798;2023-04-06T07:04:04;8.57;;;7.53;;
9388;SDS011;4734;52.778;6.798;2023-04-06T07:06:52;9.77;;;8.07;;
9388;SDS011;4734;52.778;6.798;2023-04-06T07:09:37;12.00;;;7.53;;
9388;SDS011;4734;52.778;6.798;2023-04-06T07:12:25;8.33;;;7.43;;
9388;SDS011;4734;52.778;6.798;2023-04-06T07:15:11;9.20;;;8.00;;
9388;SDS011;4734;52.778;6.798;2023-04-06T07:17:56;9.43;;;7.23;;
9388;SDS011;4734;52.778;6.798;2023-04-06T07:20:42;11.13;;;7.70;;
9388;SDS011;4734;52.778;6.798;2023-04-06T07:23:28;8.57;;;7.40;;
9388;SDS011;4734;52.778;6.798;2023-04-06T07:26:14;10.80;;;8.00;;
9388;SDS011;4734;52.778;6.798;2023-04-06T07:29:01;11.63;;;7.63;;
9388;SDS011;4734;52.778;6.798;2023-04-06T07:31:46;8.23;;;7.43;;
9388;SDS011;4734;52.778;6.798;2023-04-06T07:34:33;8.63;;;7.73;;
9388;SDS011;4734;52.778;6.798;2023-04-06T07:37:18;8.27;;;7.43;;
9388;SDS011;4734;52.778;6.798;2023-04-06T07:40:06;9.33;;;8.27;;
9388;SDS011;4734;52.778;6.798;2023-04-06T07:42:51;9.07;;;8.13;;
9388;SDS011;4734;52.778;6.798;2023-04-06T07:45:38;9.07;;;7.90;;
9388;SDS011;4734;52.778;6.798;2023-04-06T07:48:24;8.87;;;7.77;;
9388;SDS011;4734;52.778;6.798;2023-04-06T07:51:10;10.10;;;7.70;;
9388;SDS011;4734;52.778;6.798;2023-04-06T07:53:57;8.87;;;7.93;;
9388;SDS011;4734;52.778;6.798;2023-04-06T07:56:43;9.43;;;8.20;;
9388;SDS011;4734;52.778;6.798;2023-04-06T07:59:29;11.83;;;8.73;;
9388;SDS011;4734;52.778;6.798;2023-04-06T08:02:15;10.53;;;8.37;;
9388;SDS011;4734;52.778;6.798;2023-04-06T08:05:01;9.60;;;8.60;;
9388;SDS011;4734;52.778;6.798;2023-04-06T08:07:47;11.13;;;8.67;;
9388;SDS011;4734;52.778;6.798;2023-04-06T08:10:32;11.27;;;8.70;;
9388;SDS011;4734;52.778;6.798;2023-04-06T08:13:18;8.67;;;7.77;;
9388;SDS011;4734;52.778;6.798;2023-04-06T08:16:04;12.07;;;9.47;;
9388;SDS011;4734;52.778;6.798;2023-04-06T08:18:51;9.83;;;8.93;;
9388;SDS011;4734;52.778;6.798;2023-04-06T08:21:37;14.37;;;11.40;;
9388;SDS011;4734;52.778;6.798;2023-04-06T08:24:24;12.60;;;10.37;;
9388;SDS011;4734;52.778;6.798;2023-04-06T08:27:10;10.90;;;9.53;;
9388;SDS011;4734;52.778;6.798;2023-04-06T08:29:58;14.93;;;10.23;;
9388;SDS011;4734;52.778;6.798;2023-04-06T08:32:43;11.90;;;9.90;;
9388;SDS011;4734;52.778;6.798;2023-04-06T08:35:30;12.27;;;9.70;;
9388;SDS011;4734;52.778;6.798;2023-04-06T08:38:16;9.63;;;8.47;;
9388;SDS011;4734;52.778;6.798;2023-04-06T08:41:06;10.20;;;8.97;;
9388;SDS011;4734;52.778;6.798;2023-04-06T08:43:52;14.33;;;9.30;;
9388;SDS011;4734;52.778;6.798;2023-04-06T08:46:41;10.80;;;8.83;;
9388;SDS011;4734;52.778;6.798;2023-04-06T08:49:27;10.07;;;8.97;;
9388;SDS011;4734;52.778;6.798;2023-04-06T08:52:14;11.27;;;9.07;;
9388;SDS011;4734;52.778;6.798;2023-04-06T08:55:01;10.33;;;8.70;;
9388;SDS011;4734;52.778;6.798;2023-04-06T08:57:47;10.77;;;9.17;;
9388;SDS011;4734;52.778;6.798;2023-04-06T09:00:33;9.60;;;8.60;;
9388;SDS011;4734;52.778;6.798;2023-04-06T09:03:23;11.17;;;9.37;;
9388;SDS011;4734;52.778;6.798;2023-04-06T09:06:09;11.97;;;9.17;;
9388;SDS011;4734;52.778;6.798;2023-04-06T09:08:56;10.87;;;8.93;;
9388;SDS011;4734;52.778;6.798;2023-04-06T09:11:43;10.07;;;9.07;;
9388;SDS011;4734;52.778;6.798;2023-04-06T09:14:33;11.43;;;8.53;;
9388;SDS011;4734;52.778;6.798;2023-04-06T09:17:20;9.63;;;8.63;;
9388;SDS011;4734;52.778;6.798;2023-04-06T09:20:06;10.27;;;9.27;;
9388;SDS011;4734;52.778;6.798;2023-04-06T09:22:52;11.90;;;9.53;;
9388;SDS011;4734;52.778;6.798;2023-04-06T09:25:39;12.48;;;9.80;;
9388;SDS011;4734;52.778;6.798;2023-04-06T09:28:25;11.35;;;9.57;;
9388;SDS011;4734;52.778;6.798;2023-04-06T09:31:11;10.65;;;8.93;;
9388;SDS011;4734;52.778;6.798;2023-04-06T09:33:56;12.70;;;9.07;;
9388;SDS011;4734;52.778;6.798;2023-04-06T09:36:42;14.82;;;9.93;;
9388;SDS011;4734;52.778;6.798;2023-04-06T09:39:28;13.20;;;9.70;;
9388;SDS011;4734;52.778;6.798;2023-04-06T09:42:24;11.05;;;9.95;;
9388;SDS011;4734;52.778;6.798;2023-04-06T09:45:10;12.32;;;10.38;;
9388;SDS011;4734;52.778;6.798;2023-04-06T09:47:56;14.52;;;10.85;;
9388;SDS011;4734;52.778;6.798;2023-04-06T09:50:41;12.50;;;10.43;;
9388;SDS011;4734;52.778;6.798;2023-04-06T09:53:27;11.43;;;10.23;;
9388;SDS011;4734;52.778;6.798;2023-04-06T09:56:16;12.07;;;10.77;;
9388;SDS011;4734;52.778;6.798;2023-04-06T09:59:05;13.00;;;10.93;;
9388;SDS011;4734;52.778;6.798;2023-04-06T10:01:51;12.93;;;11.52;;
9388;SDS011;4734;52.778;6.798;2023-04-06T10:04:39;14.52;;;10.43;;
9388;SDS011;4734;52.778;6.798;2023-04-06T10:07:26;14.18;;;11.10;;
9388;SDS011;4734;52.778;6.798;2023-04-06T10:10:11;12.55;;;11.25;;
9388;SDS011;4734;52.778;6.798;2023-04-06T10:13:00;14.02;;;11.70;;
9388;SDS011;4734;52.778;6.798;2023-04-06T10:15:47;14.85;;;11.65;;
9388;SDS011;4734;52.778;6.798;2023-04-06T10:18:35;13.23;;;11.80;;
9388;SDS011;4734;52.778;6.798;2023-04-06T10:21:23;13.02;;;11.45;;
9388;SDS011;4734;52.778;6.798;2023-04-06T10:24:11;15.25;;;12.45;;
9388;SDS011;4734;52.778;6.798;2023-04-06T10:26:58;14.35;;;12.18;;
9388;SDS011;4734;52.778;6.798;2023-04-06T10:29:44;15.18;;;13.63;;
9388;SDS011;4734;52.778;6.798;2023-04-06T10:32:35;13.05;;;11.73;;
9388;SDS011;4734;52.778;6.798;2023-04-06T10:35:21;14.82;;;12.77;;
9388;SDS011;4734;52.778;6.798;2023-04-06T10:38:07;13.15;;;11.85;;
9388;SDS011;4734;52.778;6.798;2023-04-06T10:40:54;13.95;;;12.45;;
9388;SDS011;4734;52.778;6.798;2023-04-06T10:43:54;15.18;;;12.68;;
9388;SDS011;4734;52.778;6.798;2023-04-06T10:46:40;14.13;;;12.63;;
9388;SDS011;4734;52.778;6.798;2023-04-06T10:49:38;13.68;;;12.23;;
9388;SDS011;4734;52.778;6.798;2023-04-06T10:52:25;14.07;;;12.27;;
9388;SDS011;4734;52.778;6.798;2023-04-06T10:55:10;14.82;;;12.75;;
9388;SDS011;4734;52.778;6.798;2023-04-06T10:58:00;16.33;;;13.68;;
9388;SDS011;4734;52.778;6.798;2023-04-06T11:00:46;16.65;;;14.63;;
9388;SDS011;4734;52.778;6.798;2023-04-06T11:03:36;15.70;;;13.93;;
9388;SDS011;4734;52.778;6.798;2023-04-06T11:06:29;21.17;;;15.07;;
9388;SDS011;4734;52.778;6.798;2023-04-06T11:09:25;17.92;;;15.88;;
9388;SDS011;4734;52.778;6.798;2023-04-06T11:12:19;18.13;;;15.35;;
9388;SDS011;4734;52.778;6.798;2023-04-06T11:15:06;17.48;;;15.70;;
9388;SDS011;4734;52.778;6.798;2023-04-06T11:17:52;17.40;;;15.50;;
9388;SDS011;4734;52.778;6.798;2023-04-06T11:20:37;18.27;;;16.40;;
9388;SDS011;4734;52.778;6.798;2023-04-06T11:23:25;18.58;;;15.65;;
9388;SDS011;4734;52.778;6.798;2023-04-06T11:26:11;18.75;;;16.88;;
9388;SDS011;4734;52.778;6.798;2023-04-06T11:28:57;19.27;;;16.02;;
9388;SDS011;4734;52.778;6.798;2023-04-06T11:31:44;18.38;;;16.38;;
9388;SDS011;4734;52.778;6.798;2023-04-06T11:34:32;17.63;;;15.82;;
9388;SDS011;4734;52.778;6.798;2023-04-06T11:37:18;19.08;;;16.48;;
9388;SDS011;4734;52.778;6.798;2023-04-06T11:40:07;18.75;;;16.65;;
9388;SDS011;4734;52.778;6.798;2023-04-06T11:42:53;18.98;;;16.88;;
9388;SDS011;4734;52.778;6.798;2023-04-06T11:45:39;18.88;;;16.85;;
9388;SDS011;4734;52.778;6.798;2023-04-06T11:48:26;19.60;;;17.55;;
9388;SDS011;4734;52.778;6.798;2023-04-06T11:51:12;17.67;;;15.80;;
9388;SDS011;4734;52.778;6.798;2023-04-06T11:53:57;20.67;;;16.58;;
9388;SDS011;4734;52.778;6.798;2023-04-06T11:56:47;20.92;;;17.77;;
9388;SDS011;4734;52.778;6.798;2023-04-06T11:59:32;23.20;;;17.55;;
9388;SDS011;4734;52.778;6.798;2023-04-06T12:02:18;19.00;;;16.77;;
9388;SDS011;4734;52.778;6.798;2023-04-06T12:05:05;18.73;;;16.75;;
9388;SDS011;4734;52.778;6.798;2023-04-06T12:07:51;17.92;;;16.13;;
9388;SDS011;4734;52.778;6.798;2023-04-06T12:10:37;19.98;;;17.90;;
9388;SDS011;4734;52.778;6.798;2023-04-06T12:13:25;20.52;;;18.38;;
9388;SDS011;4734;52.778;6.798;2023-04-06T12:16:11;22.23;;;18.00;;
9388;SDS011;4734;52.778;6.798;2023-04-06T12:18:56;22.17;;;16.92;;
9388;SDS011;4734;52.778;6.798;2023-04-06T12:21:42;20.08;;;17.98;;
9388;SDS011;4734;52.778;6.798;2023-04-06T12:24:28;19.42;;;17.35;;
9388;SDS011;4734;52.778;6.798;2023-04-06T12:27:14;18.83;;;16.85;;
9388;SDS011;4734;52.778;6.798;2023-04-06T12:30:01;23.08;;;19.30;;
9388;SDS011;4734;52.778;6.798;2023-04-06T12:32:49;19.60;;;17.48;;
9388;SDS011;4734;52.778;6.798;2023-04-06T12:35:35;20.65;;;18.40;;
9388;SDS011;4734;52.778;6.798;2023-04-06T12:38:22;19.80;;;17.75;;
9388;SDS011;4734;52.778;6.798;2023-04-06T12:41:08;22.15;;;17.33;;
9388;SDS011;4734;52.778;6.798;2023-04-06T12:43:54;19.92;;;17.08;;
9388;SDS011;4734;52.778;6.798;2023-04-06T12:46:41;20.60;;;17.15;;
9388;SDS011;4734;52.778;6.798;2023-04-06T12:49:27;19.13;;;16.55;;
9388;SDS011;4734;52.778;6.798;2023-04-06T12:52:13;20.48;;;18.38;;
9388;SDS011;4734;52.778;6.798;2023-04-06T12:54:59;18.80;;;16.83;;
9388;SDS011;4734;52.778;6.798;2023-04-06T12:57:45;20.27;;;17.05;;
9388;SDS011;4734;52.778;6.798;2023-04-06T13:00:30;21.48;;;17.00;;
9388;SDS011;4734;52.778;6.798;2023-04-06T13:03:17;18.60;;;16.58;;
9388;SDS011;4734;52.778;6.798;2023-04-06T13:06:03;19.58;;;17.52;;
9388;SDS011;4734;52.778;6.798;2023-04-06T13:08:49;18.02;;;16.13;;
9388;SDS011;4734;52.778;6.798;2023-04-06T13:11:34;18.45;;;16.35;;
9388;SDS011;4734;52.778;6.798;2023-04-06T13:14:20;18.80;;;16.08;;
9388;SDS011;4734;52.778;6.798;2023-04-06T13:17:06;22.10;;;16.08;;
9388;SDS011;4734;52.778;6.798;2023-04-06T13:19:52;18.15;;;16.25;;
9388;SDS011;4734;52.778;6.798;2023-04-06T13:22:38;18.35;;;15.88;;
9388;SDS011;4734;52.778;6.798;2023-04-06T13:25:24;19.70;;;16.25;;
9388;SDS011;4734;52.778;6.798;2023-04-06T13:28:09;18.98;;;15.70;;
9388;SDS011;4734;52.778;6.798;2023-04-06T13:30:57;17.38;;;15.38;;
9388;SDS011;4734;52.778;6.798;2023-04-06T13:33:44;21.48;;;14.50;;
9388;SDS011;4734;52.778;6.798;2023-04-06T13:36:30;19.67;;;14.90;;
9388;SDS011;4734;52.778;6.798;2023-04-06T13:39:16;16.98;;;15.23;;
9388;SDS011;4734;52.778;6.798;2023-04-06T13:42:02;17.25;;;15.63;;
9388;SDS011;4734;52.778;6.798;2023-04-06T13:44:47;17.27;;;15.57;;
9388;SDS011;4734;52.778;6.798;2023-04-06T13:47:34;20.52;;;16.17;;
9388;SDS011;4734;52.778;6.798;2023-04-06T13:50:19;20.98;;;17.13;;
9388;SDS011;4734;52.778;6.798;2023-04-06T13:53:07;20.38;;;17.90;;
9388;SDS011;4734;52.778;6.798;2023-04-06T13:55:53;19.63;;;17.58;;
9388;SDS011;4734;52.778;6.798;2023-04-06T13:58:39;19.25;;;17.05;;
9388;SDS011;4734;52.778;6.798;2023-04-06T14:01:25;17.65;;;15.85;;
9388;SDS011;4734;52.778;6.798;2023-04-06T14:04:11;18.77;;;16.75;;
9388;SDS011;4734;52.778;6.798;2023-04-06T14:06:56;16.73;;;14.98;;
9388;SDS011;4734;52.778;6.798;2023-04-06T14:09:43;18.30;;;16.38;;
9388;SDS011;4734;52.778;6.798;2023-04-06T14:12:29;19.25;;;15.48;;
9388;SDS011;4734;52.778;6.798;2023-04-06T14:15:15;17.48;;;15.77;;
9388;SDS011;4734;52.778;6.798;2023-04-06T14:18:01;16.88;;;15.13;;
9388;SDS011;4734;52.778;6.798;2023-04-06T14:20:53;16.05;;;14.38;;
9388;SDS011;4734;52.778;6.798;2023-04-06T14:23:38;15.27;;;13.68;;
9388;SDS011;4734;52.778;6.798;2023-04-06T14:26:25;14.20;;;12.68;;
9388;SDS011;4734;52.778;6.798;2023-04-06T14:29:11;15.93;;;14.40;;
9388;SDS011;4734;52.778;6.798;2023-04-06T14:31:57;14.77;;;13.38;;
9388;SDS011;4734;52.778;6.798;2023-04-06T14:34:43;15.93;;;14.25;;
9388;SDS011;4734;52.778;6.798;2023-04-06T14:37:29;16.10;;;13.85;;
9388;SDS011;4734;52.778;6.798;2023-04-06T14:40:15;17.25;;;13.35;;
9388;SDS011;4734;52.778;6.798;2023-04-06T14:43:02;13.60;;;12.20;;
9388;SDS011;4734;52.778;6.798;2023-04-06T14:45:48;15.10;;;11.70;;
9388;SDS011;4734;52.778;6.798;2023-04-06T14:48:34;13.48;;;11.60;;
9388;SDS011;4734;52.778;6.798;2023-04-06T14:51:20;14.85;;;13.45;;
9388;SDS011;4734;52.778;6.798;2023-04-06T14:54:06;12.18;;;10.93;;
9388;SDS011;4734;52.778;6.798;2023-04-06T14:56:51;11.20;;;10.10;;
9388;SDS011;4734;52.778;6.798;2023-04-06T14:59:38;11.15;;;8.88;;
9388;SDS011;4734;52.778;6.798;2023-04-06T15:02:24;9.25;;;8.35;;
9388;SDS011;4734;52.778;6.798;2023-04-06T15:05:10;9.65;;;8.15;;
9388;SDS011;4734;52.778;6.798;2023-04-06T15:07:55;10.82;;;9.73;;
9388;SDS011;4734;52.778;6.798;2023-04-06T15:10:41;12.35;;;11.07;;
9388;SDS011;4734;52.778;6.798;2023-04-06T15:13:27;11.60;;;10.50;;
9388;SDS011;4734;52.778;6.798;2023-04-06T15:16:14;11.70;;;9.82;;
9388;SDS011;4734;52.778;6.798;2023-04-06T15:19:00;10.73;;;9.55;;
9388;SDS011;4734;52.778;6.798;2023-04-06T15:21:46;11.50;;;9.77;;
9388;SDS011;4734;52.778;6.798;2023-04-06T15:24:31;10.82;;;9.80;;
9388;SDS011;4734;52.778;6.798;2023-04-06T15:27:17;12.13;;;10.43;;
9388;SDS011;4734;52.778;6.798;2023-04-06T15:30:04;11.95;;;10.25;;
9388;SDS011;4734;52.778;6.798;2023-04-06T15:32:52;11.45;;;10.35;;
9388;SDS011;4734;52.778;6.798;2023-04-06T15:35:38;12.35;;;11.00;;
9388;SDS011;4734;52.778;6.798;2023-04-06T15:38:25;11.43;;;10.35;;
9388;SDS011;4734;52.778;6.798;2023-04-06T15:41:12;12.88;;;10.85;;
9388;SDS011;4734;52.778;6.798;2023-04-06T15:43:58;12.32;;;11.07;;
9388;SDS011;4734;52.778;6.798;2023-04-06T15:46:44;13.60;;;11.73;;
9388;SDS011;4734;52.778;6.798;2023-04-06T15:49:31;14.05;;;12.65;;
9388;SDS011;4734;52.778;6.798;2023-04-06T15:52:17;12.45;;;11.15;;
9388;SDS011;4734;52.778;6.798;2023-04-06T15:55:03;13.68;;;12.27;;
9388;SDS011;4734;52.778;6.798;2023-04-06T15:57:50;13.05;;;11.85;;
9388;SDS011;4734;52.778;6.798;2023-04-06T16:00:35;13.20;;;11.88;;
9388;SDS011;4734;52.778;6.798;2023-04-06T16:03:21;13.07;;;11.68;;
9388;SDS011;4734;52.778;6.798;2023-04-06T16:06:09;14.05;;;12.65;;
9388;SDS011;4734;52.778;6.798;2023-04-06T16:08:54;14.57;;;12.40;;
9388;SDS011;4734;52.778;6.798;2023-04-06T16:11:40;14.80;;;13.30;;
9388;SDS011;4734;52.778;6.798;2023-04-06T16:14:26;14.20;;;12.77;;
9388;SDS011;4734;52.778;6.798;2023-04-06T16:17:11;14.15;;;12.75;;
9388;SDS011;4734;52.778;6.798;2023-04-06T16:19:57;14.32;;;12.90;;
9388;SDS011;4734;52.778;6.798;2023-04-06T16:22:44;14.40;;;12.00;;
9388;SDS011;4734;52.778;6.798;2023-04-06T16:25:30;13.68;;;12.23;;
9388;SDS011;4734;52.778;6.798;2023-04-06T16:28:15;14.85;;;12.55;;
9388;SDS011;4734;52.778;6.798;2023-04-06T16:31:01;12.65;;;11.35;;
9388;SDS011;4734;52.778;6.798;2023-04-06T16:33:47;12.00;;;10.73;;
9388;SDS011;4734;52.778;6.798;2023-04-06T16:36:33;11.85;;;10.75;;
9388;SDS011;4734;52.778;6.798;2023-04-06T16:39:20;12.80;;;10.32;;
9388;SDS011;4734;52.778;6.798;2023-04-06T16:42:05;12.18;;;9.77;;
9388;SDS011;4734;52.778;6.798;2023-04-06T16:44:51;10.82;;;9.73;;
9388;SDS011;4734;52.778;6.798;2023-04-06T16:47:36;10.43;;;9.35;;
9388;SDS011;4734;52.778;6.798;2023-04-06T16:50:22;10.65;;;9.65;;
9388;SDS011;4734;52.778;6.798;2023-04-06T16:53:08;10.07;;;9.07;;
9388;SDS011;4734;52.778;6.798;2023-04-06T16:55:55;11.40;;;10.30;;
9388;SDS011;4734;52.778;6.798;2023-04-06T16:58:41;13.38;;;10.07;;